createdAt,value
2018-11-20T00:01:39.241Z,101294.08
2018-11-20T00:04:09.004Z,101290.87
2018-11-20T00:06:38.831Z,101299.85
2018-11-20T00:09:09.165Z,101302.95
2018-11-20T00:11:39.257Z,101314.34
2018-11-20T00:14:09.646Z,101324.67
2018-11-20T00:16:39.308Z,101320.36
2018-11-20T00:19:09.310Z,101323.96
2018-11-20T00:21:39.153Z,101324.67
2018-11-20T00:24:09.326Z,101331.05
2018-11-20T00:26:39.160Z,101330.08
2018-11-20T00:29:09.171Z,101331.48
2018-11-20T00:31:39.250Z,101333.77
2018-11-20T00:34:08.597Z,101339.66
2018-11-20T00:36:38.209Z,101338.56
2018-11-20T00:39:08.249Z,101338.70
2018-11-20T00:41:37.932Z,101351.52
2018-11-20T00:44:08.048Z,101350.20
2018-11-20T00:46:37.798Z,101357.98
2018-11-20T00:49:07.722Z,101363.61
2018-11-20T00:51:37.392Z,101362.15
2018-11-20T00:54:07.123Z,101370.19
2018-11-20T00:56:37.018Z,101372.33
2018-11-20T00:59:07.340Z,101379.88
2018-11-20T01:01:37.326Z,101379.25
2018-11-20T01:04:07.414Z,101377.52
2018-11-20T01:06:37.051Z,101379.03
2018-11-20T01:09:07.556Z,101379.40
2018-11-20T01:11:37.525Z,101381.78
2018-11-20T01:14:07.735Z,101389.77
2018-11-20T01:16:37.325Z,101393.47
2018-11-20T01:19:07.877Z,101390.18
2018-11-20T01:21:37.958Z,101389.53
2018-11-20T01:24:08.114Z,101402.20
2018-11-20T01:26:38.444Z,101403.32
2018-11-20T01:29:08.351Z,101406.00
2018-11-20T01:31:38.618Z,101411.14
2018-11-20T01:34:08.777Z,101414.06
2018-11-20T01:36:38.865Z,101418.85
2018-11-20T01:39:08.851Z,101427.24
2018-11-20T01:41:39.012Z,101423.53
2018-11-20T01:44:09.655Z,101433.77
2018-11-20T01:46:39.487Z,101433.45
2018-11-20T01:49:09.488Z,101433.62
2018-11-20T01:51:39.363Z,101442.34
2018-11-20T01:54:09.133Z,101440.17
2018-11-20T01:56:39.529Z,101443.99
2018-11-20T01:59:09.273Z,101448.12
2018-11-20T02:01:39.350Z,101460.33
2018-11-20T02:04:09.360Z,101462.77
2018-11-20T02:06:39.441Z,101472.20
2018-11-20T02:09:09.313Z,101468.02
2018-11-20T02:11:39.081Z,101474.78
2018-11-20T02:14:09.317Z,101477.55
2018-11-20T02:16:39.209Z,101479.31
2018-11-20T02:19:09.205Z,101479.59
2018-11-20T02:21:39.644Z,101484.92
2018-11-20T02:24:09.443Z,101485.15
2018-11-20T02:26:40.075Z,101487.45
2018-11-20T02:29:10.125Z,101495.19
2018-11-20T02:31:40.321Z,101493.91
2018-11-20T02:34:10.333Z,101494.37
2018-11-20T02:36:40.363Z,101495.31
2018-11-20T02:39:10.480Z,101498.05
2018-11-20T02:41:40.592Z,101506.03
2018-11-20T02:44:10.361Z,101509.79
2018-11-20T02:46:40.756Z,101510.22
2018-11-20T02:49:10.753Z,101522.63
2018-11-20T02:51:40.965Z,101521.88
2018-11-20T02:54:11.042Z,101516.58
2018-11-20T02:56:41.328Z,101519.78
2018-11-20T02:59:11.436Z,101516.98
2018-11-20T03:01:41.486Z,101521.41
2018-11-20T03:04:11.352Z,101526.94
2018-11-20T03:06:41.653Z,101525.58
2018-11-20T03:09:11.693Z,101522.44
2018-11-20T03:11:41.654Z,101516.87
2018-11-20T03:14:11.846Z,101520.46
2018-11-20T03:16:41.900Z,101521.14
2018-11-20T03:19:11.771Z,101519.92
2018-11-20T03:21:41.788Z,101517.05
2018-11-20T03:24:11.837Z,101521.95
2018-11-20T03:26:41.756Z,101521.14
2018-11-20T03:29:11.910Z,101521.94
2018-11-20T03:31:41.560Z,101522.52
2018-11-20T03:34:11.832Z,101519.31
2018-11-20T03:36:41.885Z,101525.08
2018-11-20T03:39:11.691Z,101523.78
2018-11-20T03:41:41.311Z,101523.08
2018-11-20T03:44:11.052Z,101519.45
2018-11-20T03:46:41.588Z,101517.71
2018-11-20T03:49:11.764Z,101513.38
2018-11-20T03:51:41.202Z,101512.86
2018-11-20T03:54:11.183Z,101517.48
2018-11-20T03:56:41.073Z,101513.97
2018-11-20T03:59:10.791Z,101511.28
2018-11-20T04:01:40.835Z,101507.70
2018-11-20T04:04:10.634Z,101508.65
2018-11-20T04:06:40.640Z,101502.67
2018-11-20T04:09:10.360Z,101496.55
2018-11-20T04:11:40.580Z,101488.25
2018-11-20T04:14:10.819Z,101492.38
2018-11-20T04:16:40.420Z,101481.72
2018-11-20T04:19:10.383Z,101485.42
2018-11-20T04:21:40.242Z,101481.91
2018-11-20T04:24:10.153Z,101474.84
2018-11-20T04:26:39.829Z,101475.96
2018-11-20T04:29:10.068Z,101470.30
2018-11-20T04:31:40.169Z,101469.16
2018-11-20T04:34:10.034Z,101466.47
2018-11-20T04:36:40.141Z,101459.84
2018-11-20T04:39:10.149Z,101460.81
2018-11-20T04:41:40.286Z,101451.15
2018-11-20T04:44:10.275Z,101444.41
2018-11-20T04:46:40.413Z,101428.86
2018-11-20T04:49:10.109Z,101427.66
2018-11-20T04:51:40.246Z,101424.31
2018-11-20T04:54:10.227Z,101424.52
2018-11-20T04:56:40.379Z,101419.56
2018-11-20T04:59:09.882Z,101411.59
2018-11-20T05:01:40.206Z,101422.08
2018-11-20T05:04:10.051Z,101417.48
2018-11-20T05:06:39.846Z,101410.86
2018-11-20T05:09:09.962Z,101403.37
2018-11-20T05:11:40.167Z,101412.64
2018-11-20T05:14:09.981Z,101408.73
2018-11-20T05:16:39.897Z,101405.98
2018-11-20T05:19:10.061Z,101400.50
2018-11-20T05:21:40.241Z,101403.22
2018-11-20T05:24:09.902Z,101396.20
2018-11-20T05:26:40.074Z,101390.20
2018-11-20T05:29:09.983Z,101385.67
2018-11-20T05:31:40.161Z,101376.03
2018-11-20T05:34:10.250Z,101372.08
2018-11-20T05:36:40.313Z,101359.14
2018-11-20T05:39:10.387Z,101353.64
2018-11-20T05:41:40.377Z,101350.39
2018-11-20T05:44:10.568Z,101344.77
2018-11-20T05:46:41.707Z,101350.39
2018-11-20T05:49:11.692Z,101340.80
2018-11-20T05:51:42.698Z,101334.87
2018-11-20T05:54:12.257Z,101335.82
2018-11-20T05:56:42.321Z,101330.76
2018-11-20T05:59:16.492Z,101327.22
2018-11-20T06:01:46.076Z,101325.63
2018-11-20T06:04:17.026Z,101319.31
2018-11-20T06:06:47.721Z,101313.84
2018-11-20T06:09:17.131Z,101311.77
2018-11-20T06:11:47.015Z,101310.91
2018-11-20T06:14:17.068Z,101299.61
2018-11-20T06:16:47.350Z,101296.18
2018-11-20T06:19:16.882Z,101289.95
2018-11-20T06:21:47.009Z,101278.90
2018-11-20T06:24:16.961Z,101277.41
2018-11-20T06:26:47.020Z,101267.83
2018-11-20T06:29:17.182Z,101273.12
2018-11-20T06:31:46.871Z,101265.70
2018-11-20T06:34:16.945Z,101254.83
2018-11-20T06:36:47.631Z,101254.45
2018-11-20T06:39:17.787Z,101243.12
2018-11-20T06:41:47.754Z,101235.95
2018-11-20T06:44:17.952Z,101233.42
2018-11-20T06:46:48.351Z,101225.00
2018-11-20T06:49:18.430Z,101213.87
2018-11-20T06:51:48.574Z,101209.75
2018-11-20T06:54:18.921Z,101199.63
2018-11-20T06:56:48.466Z,101205.36
2018-11-20T06:59:18.100Z,101198.30
2018-11-20T07:01:48.493Z,101193.36
2018-11-20T07:04:18.317Z,101186.42
2018-11-20T07:06:48.328Z,101183.54
2018-11-20T07:09:17.753Z,101171.12
2018-11-20T07:11:48.819Z,101172.64
2018-11-20T07:14:18.705Z,101162.11
2018-11-20T07:16:48.697Z,101159.22
2018-11-20T07:19:18.735Z,101153.27
2018-11-20T07:21:48.839Z,101146.13
2018-11-20T07:24:18.952Z,101149.23
2018-11-20T07:26:48.951Z,101143.30
2018-11-20T07:29:19.060Z,101144.60
2018-11-20T07:31:49.143Z,101137.09
2018-11-20T07:34:18.700Z,101141.78
2018-11-20T07:36:48.294Z,101136.50
2018-11-20T07:39:18.196Z,101131.29
2018-11-20T07:41:47.956Z,101123.48
2018-11-20T07:44:18.136Z,101114.92
2018-11-20T07:46:48.094Z,101111.86
2018-11-20T07:49:17.925Z,101105.23
2018-11-20T07:51:47.922Z,101107.05
2018-11-20T07:54:17.734Z,101099.91
2018-11-20T07:56:47.862Z,101097.53
